Bridlington, United Kingdom
Current Conditions -  °F | °C
As of 10:50 PM on Saturday 22 Nov 2014 (Local Time) from EGXV Reporting Station
Overcast Overcast  
Wind Chill: 45°   Ceiling: 18000
Heat Index: 45°   Visibility: 2.1mi
Dew Point: 45°   Wind: 2mph
Humidity: 100%   Direction: 300°WNW
Pressure: 29.94"   Gusts: NA
Location:  54.08°N, 0.19°W
Report Text: EGXV 222250Z AUTO 30002KT 3400 OVC180/// 07/07 Q1014
Loading
Personal Weather Stations






























Interactive Weather Map New forecast layout! Learn more

10-Day Weather Forecast

Advertisements
Track Severe Weather on mobile